createdAt,value
2022-07-30T00:01:41.559Z,68.69
2022-07-30T00:04:10.821Z,69.15
2022-07-30T00:06:40.178Z,69.58
2022-07-30T00:09:09.467Z,70.83
2022-07-30T00:11:38.632Z,71.06
2022-07-30T00:14:07.688Z,71.01
2022-07-30T00:16:36.910Z,70.99
2022-07-30T00:19:08.870Z,71.88
2022-07-30T00:21:39.186Z,71.20
2022-07-30T00:24:10.448Z,70.45
2022-07-30T00:26:39.581Z,70.35
2022-07-30T00:29:08.857Z,70.16
2022-07-30T00:31:40.056Z,69.87
2022-07-30T00:34:09.232Z,70.08
2022-07-30T00:36:38.327Z,70.24
2022-07-30T00:39:10.196Z,70.23
2022-07-30T00:41:39.330Z,70.37
2022-07-30T00:44:08.449Z,69.78
2022-07-30T00:46:37.675Z,69.97
2022-07-30T00:49:06.961Z,70.30
2022-07-30T00:51:39.526Z,69.93
2022-07-30T00:54:08.678Z,71.53
2022-07-30T00:56:37.979Z,70.34
2022-07-30T00:59:09.127Z,70.36
2022-07-30T01:01:40.391Z,71.40
2022-07-30T01:04:13.692Z,70.74
2022-07-30T01:06:42.866Z,70.70
2022-07-30T01:09:12.107Z,71.09
2022-07-30T01:11:41.286Z,71.11
2022-07-30T01:14:10.432Z,71.28
2022-07-30T01:16:39.719Z,71.28
2022-07-30T01:19:26.818Z,71.16
2022-07-30T01:21:58.097Z,71.68
2022-07-30T01:24:29.718Z,71.30
2022-07-30T01:26:59.093Z,71.07
2022-07-30T01:29:30.366Z,71.72
2022-07-30T01:32:02.412Z,71.14
2022-07-30T01:34:31.748Z,71.77
2022-07-30T01:37:01.382Z,72.53
2022-07-30T01:39:32.907Z,72.87
2022-07-30T01:42:07.423Z,72.44
2022-07-30T01:44:36.857Z,72.44
2022-07-30T01:47:06.122Z,72.70
2022-07-30T01:49:35.431Z,72.31
2022-07-30T01:52:04.845Z,72.98
2022-07-30T01:54:34.102Z,72.00
2022-07-30T01:57:05.448Z,72.68
2022-07-30T01:59:34.817Z,71.70
2022-07-30T02:02:06.449Z,71.52
2022-07-30T02:04:35.730Z,72.00
2022-07-30T02:07:05.143Z,71.47
2022-07-30T02:09:36.475Z,71.41
2022-07-30T02:12:27.713Z,71.46
2022-07-30T02:14:59.489Z,71.54
2022-07-30T02:17:34.714Z,71.42
2022-07-30T02:20:11.120Z,71.42
2022-07-30T02:22:45.240Z,71.32
2022-07-30T02:25:14.565Z,71.81
2022-07-30T02:27:43.924Z,72.40
2022-07-30T02:30:15.476Z,71.98
2022-07-30T02:32:47.567Z,71.99
2022-07-30T02:35:16.790Z,72.04
2022-07-30T02:37:46.055Z,72.93
2022-07-30T02:40:15.438Z,72.20
2022-07-30T02:42:44.768Z,72.93
2022-07-30T02:45:19.810Z,72.12
2022-07-30T02:47:49.132Z,74.11
2022-07-30T02:50:18.362Z,73.73
2022-07-30T02:52:47.671Z,73.31
2022-07-30T02:55:16.973Z,73.05
2022-07-30T02:57:46.301Z,73.23
2022-07-30T03:00:15.658Z,73.48
2022-07-30T03:02:47.742Z,72.87
2022-07-30T03:05:18.414Z,73.13
2022-07-30T03:07:47.720Z,73.40
2022-07-30T03:10:17.038Z,73.10
2022-07-30T03:12:48.852Z,73.56
2022-07-30T03:15:18.095Z,73.09
2022-07-30T03:17:49.801Z,73.35
2022-07-30T03:20:19.193Z,72.87
2022-07-30T03:22:48.427Z,73.57
2022-07-30T03:25:20.011Z,74.10
2022-07-30T03:27:49.243Z,73.83
2022-07-30T03:30:21.052Z,73.40
2022-07-30T03:32:50.443Z,73.21
2022-07-30T03:35:25.213Z,73.00
2022-07-30T03:37:57.588Z,73.41
2022-07-30T03:40:29.141Z,73.42
2022-07-30T03:43:00.533Z,73.78
2022-07-30T03:45:29.817Z,73.54
2022-07-30T03:48:04.420Z,73.12
2022-07-30T03:50:37.153Z,73.31
2022-07-30T03:53:08.866Z,73.11
2022-07-30T03:55:49.811Z,73.27
2022-07-30T03:58:37.642Z,72.98
2022-07-30T04:01:09.330Z,72.66
2022-07-30T04:03:40.738Z,72.79
2022-07-30T04:06:10.067Z,72.53
2022-07-30T04:08:39.689Z,72.34
2022-07-30T04:11:09.156Z,72.20
2022-07-30T04:14:11.298Z,72.34
2022-07-30T04:16:47.184Z,71.86
2022-07-30T04:19:19.482Z,71.68
2022-07-30T04:21:51.352Z,71.89
2022-07-30T04:24:20.880Z,71.50
2022-07-30T04:26:50.288Z,71.64
2022-07-30T04:29:24.689Z,71.83
2022-07-30T04:31:57.063Z,71.70
2022-07-30T04:34:46.356Z,71.78
2022-07-30T04:37:18.287Z,72.31
2022-07-30T04:39:51.986Z,72.01
2022-07-30T04:42:21.317Z,72.18
2022-07-30T04:45:04.260Z,72.42
2022-07-30T04:47:43.051Z,71.98
2022-07-30T04:50:32.623Z,72.19
2022-07-30T04:53:02.228Z,72.48
2022-07-30T04:55:38.013Z,72.32
2022-07-30T04:58:09.570Z,72.44
2022-07-30T05:00:41.632Z,72.59
2022-07-30T05:03:18.094Z,72.31
2022-07-30T05:05:57.442Z,72.64
2022-07-30T05:08:33.817Z,72.42
2022-07-30T05:11:07.393Z,72.11
2022-07-30T05:13:39.860Z,72.42
2022-07-30T05:16:13.740Z,71.96
2022-07-30T05:18:43.133Z,71.93
2022-07-30T05:21:14.780Z,71.83
2022-07-30T05:23:51.888Z,71.79
2022-07-30T05:26:27.711Z,71.66
2022-07-30T05:28:59.327Z,71.56
2022-07-30T05:31:34.536Z,71.44
2022-07-30T05:34:06.049Z,71.34
2022-07-30T05:36:46.470Z,71.03
2022-07-30T05:39:18.566Z,70.90
2022-07-30T05:42:00.093Z,70.84
2022-07-30T05:44:39.098Z,70.52
2022-07-30T05:47:08.438Z,70.63
2022-07-30T05:49:38.173Z,70.25
2022-07-30T05:52:10.485Z,70.30
2022-07-30T05:54:39.908Z,70.10
2022-07-30T05:57:47.128Z,69.88
2022-07-30T06:00:16.443Z,69.74
2022-07-30T06:02:53.494Z,69.55
2022-07-30T06:05:29.032Z,69.43
2022-07-30T06:08:01.084Z,69.35
2022-07-30T06:10:31.428Z,68.66
2022-07-30T06:13:01.286Z,68.48
2022-07-30T06:15:31.303Z,68.33
2022-07-30T06:18:02.353Z,68.35
2022-07-30T06:20:42.333Z,67.97
2022-07-30T06:23:24.287Z,67.80
2022-07-30T06:26:23.002Z,67.56
2022-07-30T06:28:53.428Z,66.98
2022-07-30T06:31:28.319Z,66.31
2022-07-30T06:33:57.566Z,66.36
2022-07-30T06:36:30.923Z,65.86
2022-07-30T06:39:03.161Z,65.55
2022-07-30T06:41:52.570Z,65.74
2022-07-30T06:44:21.991Z,65.36
2022-07-30T06:47:08.389Z,64.88
2022-07-30T06:49:39.917Z,64.60
2022-07-30T06:52:15.646Z,64.21
2022-07-30T06:54:50.246Z,63.26
2022-07-30T06:57:30.637Z,63.48
2022-07-30T07:00:00.533Z,63.26
2022-07-30T07:02:39.669Z,63.11
2022-07-30T07:05:12.489Z,63.03
2022-07-30T07:07:52.456Z,62.70
2022-07-30T07:10:29.163Z,62.55
2022-07-30T07:13:18.736Z,62.44
2022-07-30T07:15:48.433Z,62.23
2022-07-30T07:18:21.579Z,62.19
2022-07-30T07:21:08.699Z,61.15
2022-07-30T07:23:41.802Z,61.23
2022-07-30T07:26:32.045Z,60.69
2022-07-30T07:29:05.099Z,60.74
2022-07-30T07:32:05.050Z,60.61
2022-07-30T07:34:25.673Z,59.91
2022-07-30T07:36:55.866Z,59.50
2022-07-30T07:39:25.783Z,59.33
2022-07-30T07:41:55.341Z,59.39
2022-07-30T07:44:26.176Z,59.23
2022-07-30T07:46:55.554Z,58.76
2022-07-30T07:49:27.451Z,58.41
2022-07-30T07:51:56.868Z,58.13
2022-07-30T07:54:26.129Z,57.48
2022-07-30T07:56:57.720Z,57.27
2022-07-30T07:59:40.012Z,56.74
2022-07-30T08:02:27.875Z,57.07
2022-07-30T08:05:03.294Z,56.66
2022-07-30T08:07:49.486Z,56.72
2022-07-30T08:10:19.477Z,56.49
2022-07-30T08:13:48.468Z,56.22
2022-07-30T08:16:19.631Z,56.58
2022-07-30T08:19:18.134Z,56.05
2022-07-30T08:21:53.665Z,56.14
2022-07-30T08:24:23.851Z,55.81
2022-07-30T08:26:53.870Z,55.83
2022-07-30T08:29:23.677Z,55.94
2022-07-30T08:31:53.548Z,55.36
2022-07-30T08:34:26.228Z,55.83
2022-07-30T08:36:57.374Z,55.09
2022-07-30T08:39:27.789Z,55.32
2022-07-30T08:41:56.989Z,55.26
2022-07-30T08:44:26.091Z,55.19
2022-07-30T08:46:56.728Z,55.07
2022-07-30T08:49:44.621Z,55.40
2022-07-30T08:52:18.838Z,55.66
2022-07-30T08:54:55.908Z,55.80
2022-07-30T08:57:25.165Z,55.77
2022-07-30T09:00:00.062Z,56.04
2022-07-30T09:02:31.180Z,55.90
2022-07-30T09:05:04.335Z,56.23
2022-07-30T09:07:35.035Z,56.12
2022-07-30T09:10:05.321Z,56.24
2022-07-30T09:12:35.511Z,56.36
2022-07-30T09:15:05.022Z,56.70
2022-07-30T09:17:34.311Z,57.00
2022-07-30T09:20:04.060Z,57.08
2022-07-30T09:22:35.440Z,57.32
2022-07-30T09:25:24.460Z,57.94
2022-07-30T09:28:15.759Z,61.19
2022-07-30T09:31:04.782Z,61.99
2022-07-30T09:33:52.497Z,62.44
2022-07-30T09:36:41.715Z,63.09
2022-07-30T09:39:37.451Z,62.04
2022-07-30T09:42:17.210Z,62.43
2022-07-30T09:44:47.242Z,62.16
2022-07-30T09:47:16.861Z,61.49
2022-07-30T09:49:47.264Z,61.31
2022-07-30T09:52:17.183Z,60.75
2022-07-30T09:54:56.615Z,60.84
2022-07-30T09:57:30.205Z,60.62
2022-07-30T10:00:02.972Z,60.53
2022-07-30T10:02:44.236Z,59.98
2022-07-30T10:05:40.434Z,59.92
2022-07-30T10:08:16.730Z,60.21
2022-07-30T10:10:50.934Z,60.26
2022-07-30T10:13:21.167Z,59.65
2022-07-30T10:15:51.633Z,59.62
2022-07-30T10:18:21.293Z,59.51
2022-07-30T10:21:11.462Z,59.90
2022-07-30T10:24:09.952Z,60.79
2022-07-30T10:26:54.288Z,60.97
2022-07-30T10:29:42.793Z,60.71
2022-07-30T10:32:12.477Z,60.96
2022-07-30T10:34:43.938Z,60.93
2022-07-30T10:37:13.343Z,60.88
2022-07-30T10:39:42.708Z,60.46
2022-07-30T10:42:12.059Z,60.05
2022-07-30T10:44:41.230Z,60.13
2022-07-30T10:47:10.777Z,59.92
2022-07-30T10:49:41.017Z,60.04
2022-07-30T10:52:12.451Z,60.52
2022-07-30T10:54:42.248Z,62.07
2022-07-30T10:57:14.900Z,63.86
2022-07-30T10:59:52.161Z,65.77
2022-07-30T11:02:21.416Z,65.94
2022-07-30T11:04:52.079Z,66.40
2022-07-30T11:07:24.091Z,68.29
2022-07-30T11:10:05.542Z,70.70
2022-07-30T11:12:38.747Z,69.70
2022-07-30T11:15:18.953Z,69.93
2022-07-30T11:17:49.186Z,71.12
2022-07-30T11:20:21.246Z,70.31
2022-07-30T11:22:54.347Z,71.10
2022-07-30T11:25:23.501Z,70.70
2022-07-30T11:27:52.659Z,72.13
2022-07-30T11:30:23.351Z,72.28
2022-07-30T11:32:53.062Z,71.93
2022-07-30T11:35:23.650Z,72.21
2022-07-30T11:37:53.115Z,74.65
2022-07-30T11:40:26.135Z,74.79
2022-07-30T11:42:56.088Z,75.12
2022-07-30T11:45:29.661Z,75.98
2022-07-30T11:48:00.478Z,76.19
2022-07-30T11:50:29.793Z,76.51
2022-07-30T11:52:59.487Z,78.15
2022-07-30T11:55:28.797Z,77.01
2022-07-30T11:57:57.990Z,77.88
2022-07-30T12:00:27.267Z,79.62
2022-07-30T12:02:58.812Z,77.70
2022-07-30T12:05:30.555Z,78.99
2022-07-30T12:08:00.316Z,78.35
2022-07-30T12:10:29.931Z,80.68
2022-07-30T12:13:00.331Z,79.93
2022-07-30T12:15:29.802Z,80.89
2022-07-30T12:18:24.321Z,85.39
2022-07-30T12:20:48.366Z,84.33
2022-07-30T12:23:21.559Z,86.94
2022-07-30T12:25:51.781Z,86.83
2022-07-30T12:28:21.283Z,89.21
2022-07-30T12:30:50.559Z,92.43
2022-07-30T12:33:19.852Z,95.43
2022-07-30T12:35:49.054Z,95.07
2022-07-30T12:40:53.829Z,100.00
2022-07-30T12:43:23.073Z,100.00
2022-07-30T12:45:54.249Z,100.00
2022-07-30T12:48:24.484Z,100.00
2022-07-30T12:50:53.701Z,100.00
2022-07-30T12:53:24.707Z,100.00
2022-07-30T12:55:54.054Z,100.00
2022-07-30T12:58:23.368Z,100.00
2022-07-30T13:00:53.127Z,100.00
2022-07-30T13:03:22.338Z,100.00
2022-07-30T13:05:51.540Z,100.00
2022-07-30T13:08:25.216Z,100.00
2022-07-30T13:10:54.612Z,100.00
2022-07-30T13:13:24.155Z,100.00
2022-07-30T13:15:54.060Z,100.00
2022-07-30T13:18:23.819Z,100.00
2022-07-30T13:20:53.054Z,100.00
2022-07-30T13:23:22.311Z,100.00
2022-07-30T13:25:51.750Z,100.00
2022-07-30T13:28:20.976Z,100.00
2022-07-30T13:30:50.213Z,100.00
2022-07-30T13:33:19.612Z,100.00
2022-07-30T13:35:48.885Z,100.00
2022-07-30T13:38:18.113Z,100.00
2022-07-30T13:40:47.382Z,100.00
2022-07-30T13:43:16.550Z,100.00
2022-07-30T13:45:45.864Z,100.00
2022-07-30T13:48:15.471Z,100.00
2022-07-30T13:50:45.666Z,100.00
2022-07-30T13:53:14.868Z,100.00
2022-07-30T13:55:44.873Z,100.00
2022-07-30T13:58:14.130Z,100.00
2022-07-30T14:00:45.512Z,100.00
2022-07-30T14:03:14.682Z,100.00
2022-07-30T14:05:43.861Z,100.00
2022-07-30T14:08:13.163Z,100.00
2022-07-30T14:10:42.309Z,100.00
2022-07-30T14:13:16.014Z,100.00
2022-07-30T14:15:50.906Z,100.00
2022-07-30T14:18:20.099Z,100.00
2022-07-30T14:20:49.774Z,100.00
2022-07-30T14:23:19.031Z,100.00
2022-07-30T14:25:48.209Z,100.00
2022-07-30T14:28:17.682Z,100.00
2022-07-30T14:30:47.037Z,100.00
2022-07-30T14:33:16.382Z,100.00
2022-07-30T14:35:45.704Z,100.00
2022-07-30T14:38:15.043Z,100.00
2022-07-30T14:40:44.363Z,100.00
2022-07-30T14:43:15.055Z,100.00
2022-07-30T14:45:44.263Z,100.00
2022-07-30T14:48:13.538Z,100.00
2022-07-30T14:50:57.203Z,100.00
2022-07-30T14:53:31.976Z,100.00
2022-07-30T14:56:01.098Z,100.00
2022-07-30T14:58:30.412Z,100.00
2022-07-30T15:01:00.143Z,100.00
2022-07-30T15:03:45.404Z,100.00
2022-07-30T15:06:15.552Z,100.00
2022-07-30T15:08:46.227Z,100.00
2022-07-30T15:11:15.673Z,100.00
2022-07-30T15:13:50.192Z,100.00
2022-07-30T15:16:20.418Z,100.00
2022-07-30T15:18:49.856Z,100.00
2022-07-30T15:21:19.040Z,100.00
2022-07-30T15:23:48.381Z,100.00
2022-07-30T15:26:17.589Z,100.00
2022-07-30T15:28:46.800Z,100.00
2022-07-30T15:31:16.002Z,100.00
2022-07-30T15:33:45.227Z,100.00
2022-07-30T15:36:14.676Z,100.00
2022-07-30T15:38:43.904Z,100.00
2022-07-30T15:41:15.561Z,100.00
2022-07-30T15:43:44.880Z,100.00
2022-07-30T15:46:14.318Z,100.00
2022-07-30T15:48:43.523Z,100.00
2022-07-30T15:51:13.216Z,100.00
2022-07-30T15:53:42.401Z,100.00
2022-07-30T15:56:11.637Z,100.00
2022-07-30T15:58:43.506Z,100.00
2022-07-30T16:01:13.208Z,100.00
2022-07-30T16:03:42.468Z,100.00
2022-07-30T16:06:11.668Z,100.00
2022-07-30T16:08:40.909Z,100.00
2022-07-30T16:11:10.946Z,100.00
2022-07-30T16:13:40.588Z,100.00
2022-07-30T16:16:09.826Z,100.00
2022-07-30T16:18:39.159Z,100.00
2022-07-30T16:21:08.528Z,100.00
2022-07-30T16:23:39.527Z,100.00
2022-07-30T16:26:09.046Z,100.00
2022-07-30T16:28:39.648Z,100.00
2022-07-30T16:31:09.180Z,100.00
2022-07-30T16:33:38.513Z,100.00
2022-07-30T16:36:07.725Z,100.00
2022-07-30T16:38:37.108Z,100.00
2022-07-30T16:41:10.370Z,100.00
2022-07-30T16:43:42.326Z,100.00
2022-07-30T16:46:12.210Z,100.00
2022-07-30T16:48:41.445Z,100.00
2022-07-30T16:51:10.747Z,100.00
2022-07-30T16:53:41.576Z,100.00
2022-07-30T16:56:10.859Z,100.00
2022-07-30T16:58:40.060Z,100.00
2022-07-30T17:01:09.636Z,100.00
2022-07-30T17:03:39.071Z,100.00
2022-07-30T17:06:08.303Z,100.00
2022-07-30T17:08:37.759Z,100.00
2022-07-30T17:11:09.044Z,100.00
2022-07-30T17:13:40.616Z,100.00
2022-07-30T17:16:10.080Z,100.00
2022-07-30T17:18:39.422Z,100.00
2022-07-30T17:21:08.910Z,100.00
2022-07-30T17:23:39.154Z,100.00
2022-07-30T17:26:10.607Z,100.00
2022-07-30T17:28:39.882Z,100.00
2022-07-30T17:31:09.238Z,100.00
2022-07-30T17:33:39.150Z,100.00
2022-07-30T17:36:09.752Z,100.00
2022-07-30T17:38:39.241Z,100.00
2022-07-30T17:41:13.096Z,100.00
2022-07-30T17:43:42.921Z,100.00
2022-07-30T17:46:12.260Z,100.00
2022-07-30T17:48:41.517Z,100.00
2022-07-30T17:51:10.765Z,100.00
2022-07-30T17:53:40.103Z,100.00
2022-07-30T17:56:25.523Z,100.00
2022-07-30T17:58:56.896Z,100.00
2022-07-30T18:01:26.101Z,100.00
2022-07-30T18:03:55.530Z,100.00
2022-07-30T18:06:24.791Z,100.00
2022-07-30T18:08:54.147Z,100.00
2022-07-30T18:11:23.266Z,100.00
2022-07-30T18:13:52.494Z,100.00
2022-07-30T18:16:21.683Z,100.00
2022-07-30T18:18:51.013Z,100.00
2022-07-30T18:21:20.253Z,100.00
2022-07-30T18:23:49.529Z,100.00
2022-07-30T18:26:18.705Z,100.00
2022-07-30T18:28:51.024Z,100.00
2022-07-30T18:31:20.219Z,100.00
2022-07-30T18:33:50.018Z,100.00
2022-07-30T18:36:19.827Z,100.00
2022-07-30T18:38:51.202Z,100.00
2022-07-30T18:41:20.476Z,100.00
2022-07-30T18:43:49.722Z,100.00
2022-07-30T18:46:18.973Z,100.00
2022-07-30T18:48:48.997Z,100.00
2022-07-30T18:51:19.158Z,100.00
2022-07-30T18:53:48.720Z,100.00
2022-07-30T18:56:18.112Z,100.00
2022-07-30T18:58:47.583Z,100.00
2022-07-30T19:01:18.578Z,100.00
2022-07-30T19:03:48.009Z,100.00
2022-07-30T19:06:17.526Z,100.00
2022-07-30T19:08:51.005Z,100.00
2022-07-30T19:11:20.591Z,100.00
2022-07-30T19:13:50.685Z,100.00
2022-07-30T19:16:21.027Z,100.00
2022-07-30T19:18:50.387Z,100.00
2022-07-30T19:21:19.646Z,100.00
2022-07-30T19:23:48.928Z,100.00
2022-07-30T19:26:19.264Z,100.00
2022-07-30T19:28:48.596Z,100.00
2022-07-30T19:31:18.060Z,100.00
2022-07-30T19:33:47.254Z,100.00
2022-07-30T19:36:20.916Z,100.00
2022-07-30T19:38:50.428Z,100.00
2022-07-30T19:41:19.829Z,100.00
2022-07-30T19:43:58.117Z,100.00
2022-07-30T19:46:28.081Z,100.00
2022-07-30T19:48:59.027Z,100.00
2022-07-30T19:52:22.301Z,100.00
2022-07-30T19:54:19.109Z,100.00
2022-07-30T19:56:48.649Z,100.00
2022-07-30T19:59:43.683Z,100.00
2022-07-30T20:02:09.127Z,100.00
2022-07-30T20:04:39.987Z,100.00
2022-07-30T20:07:13.254Z,100.00
2022-07-30T20:09:44.972Z,100.00
2022-07-30T20:12:17.998Z,100.00
2022-07-30T20:14:47.395Z,100.00
2022-07-30T20:17:18.691Z,100.00
2022-07-30T20:19:48.864Z,100.00
2022-07-30T20:22:21.634Z,100.00
2022-07-30T20:24:55.545Z,100.00
2022-07-30T20:27:36.643Z,100.00
2022-07-30T20:30:08.492Z,100.00
2022-07-30T20:32:39.014Z,100.00
2022-07-30T20:35:10.831Z,100.00
2022-07-30T20:37:54.474Z,100.00
2022-07-30T20:40:24.521Z,100.00
2022-07-30T20:42:56.430Z,100.00
2022-07-30T20:45:37.877Z,100.00
2022-07-30T20:48:17.108Z,100.00
2022-07-30T20:50:49.249Z,100.00
2022-07-30T20:53:20.823Z,100.00
2022-07-30T20:55:50.449Z,100.00
2022-07-30T20:58:21.008Z,100.00
2022-07-30T21:00:52.496Z,100.00
2022-07-30T21:03:21.879Z,100.00
2022-07-30T21:05:52.742Z,100.00
2022-07-30T21:08:25.234Z,100.00
2022-07-30T21:10:55.431Z,100.00
2022-07-30T21:13:26.241Z,100.00
2022-07-30T21:16:02.297Z,100.00
2022-07-30T21:18:33.969Z,100.00
2022-07-30T21:21:05.438Z,100.00
2022-07-30T21:23:35.218Z,100.00
2022-07-30T21:26:10.642Z,100.00
2022-07-30T21:28:44.336Z,100.00
2022-07-30T21:31:14.263Z,100.00
2022-07-30T21:33:43.836Z,100.00
2022-07-30T21:36:14.970Z,100.00
2022-07-30T21:38:44.515Z,100.00
2022-07-30T21:41:14.320Z,100.00
2022-07-30T21:43:44.981Z,100.00
2022-07-30T21:46:14.423Z,100.00
2022-07-30T21:48:44.761Z,100.00
2022-07-30T21:51:16.051Z,100.00
2022-07-30T21:53:46.484Z,100.00
2022-07-30T21:56:16.436Z,100.00
2022-07-30T21:58:48.574Z,100.00
2022-07-30T22:01:22.626Z,100.00
2022-07-30T22:04:01.653Z,100.00
2022-07-30T22:06:38.059Z,100.00
2022-07-30T22:09:26.300Z,100.00
2022-07-30T22:11:57.230Z,100.00
2022-07-30T22:14:31.404Z,100.00
2022-07-30T22:17:04.415Z,100.00
2022-07-30T22:19:33.962Z,100.00
2022-07-30T22:22:25.854Z,100.00
2022-07-30T22:24:52.780Z,100.00
2022-07-30T22:27:22.700Z,100.00
2022-07-30T22:29:55.724Z,100.00
2022-07-30T22:32:25.442Z,100.00
2022-07-30T22:34:55.557Z,100.00
2022-07-30T22:37:27.123Z,100.00
2022-07-30T22:40:03.770Z,100.00
2022-07-30T22:42:36.559Z,100.00
2022-07-30T22:45:43.528Z,100.00
2022-07-30T22:48:10.357Z,100.00
2022-07-30T22:50:40.723Z,100.00
2022-07-30T22:53:56.942Z,100.00
2022-07-30T22:56:00.097Z,100.00
2022-07-30T22:58:30.395Z,100.00
2022-07-30T23:01:00.640Z,100.00
2022-07-30T23:03:29.900Z,100.00
2022-07-30T23:05:59.208Z,100.00
2022-07-30T23:08:30.997Z,100.00
2022-07-30T23:11:01.386Z,100.00
2022-07-30T23:13:31.516Z,100.00
2022-07-30T23:16:00.799Z,100.00
2022-07-30T23:18:30.214Z,100.00
2022-07-30T23:21:00.532Z,100.00
2022-07-30T23:23:33.750Z,100.00
2022-07-30T23:26:04.169Z,100.00
2022-07-30T23:28:33.881Z,100.00
2022-07-30T23:31:03.904Z,100.00
2022-07-30T23:33:33.460Z,100.00
2022-07-30T23:36:03.168Z,100.00
2022-07-30T23:38:32.489Z,100.00
2022-07-30T23:41:04.461Z,100.00
2022-07-30T23:43:33.918Z,100.00
2022-07-30T23:46:03.278Z,100.00
2022-07-30T23:48:33.342Z,100.00
2022-07-30T23:51:02.750Z,100.00
2022-07-30T23:53:32.016Z,100.00
2022-07-30T23:56:01.319Z,100.00
2022-07-30T23:58:30.779Z,100.00
